Time;durP1;ratioP1;P1;durP2;ratioP2;P2;SDS_P1;SDS_P2;PMS_P1;PMS_P2;Temp;Humidity;BMP_temperature;BMP_pressure;BME280_temperature;BME280_humidity;BME280_pressure;Samples;Min_cycle;Max_cycle;Signal;HPM_P1;HPM_P2
2021/08/10 00:00:30;;;;;;;3.47;3.05;;;;;;;15.52;86.44;101557.25;5133884;27;20473;-35
2021/08/10 00:02:56;;;;;;;4.87;3.30;;;;;;;15.39;86.58;101552.97;5133831;27;20347;-35
2021/08/10 00:05:21;;;;;;;5.05;3.15;;;;;;;15.46;86.43;101559.06;5133602;27;20252;-35
2021/08/10 00:07:46;;;;;;;7.07;3.60;;;;;;;15.44;86.22;101550.31;5134021;27;20132;-35
2021/08/10 00:10:12;;;;;;;5.72;3.63;;;;;;;15.49;86.76;101565.94;5133746;28;20023;-35
2021/08/10 00:12:37;;;;;;;5.78;3.33;;;;;;;15.40;86.74;101557.34;5134058;27;20030;-35
2021/08/10 00:15:04;;;;;;;5.93;3.80;;;;;;;15.42;87.25;101566.06;5133713;27;20474;-35
2021/08/10 00:17:30;;;;;;;6.93;3.75;;;;;;;15.45;87.53;101573.78;5133624;27;20057;-35
2021/08/10 00:19:55;;;;;;;4.57;3.42;;;;;;;15.36;86.95;101562.44;5133622;27;20029;-35
2021/08/10 00:22:21;;;;;;;4.65;3.80;;;;;;;15.41;87.11;101567.97;5133925;27;20051;-35
2021/08/10 00:24:46;;;;;;;4.85;4.10;;;;;;;15.31;87.56;101562.34;5133657;27;20020;-35
2021/08/10 00:27:14;;;;;;;5.03;3.88;;;;;;;15.35;87.66;101557.25;5133982;28;20023;-35
2021/08/10 00:29:39;;;;;;;5.35;4.13;;;;;;;15.42;87.09;101572.38;5134042;27;20039;-35
2021/08/10 00:32:05;;;;;;;10.97;4.70;;;;;;;15.36;87.42;101558.91;5133223;28;20026;-35
2021/08/10 00:34:30;;;;;;;5.25;4.53;;;;;;;15.39;87.69;101580.22;5133196;28;20027;-35
2021/08/10 00:36:55;;;;;;;6.40;4.03;;;;;;;15.41;87.61;101573.44;5133238;27;20056;-36
2021/08/10 00:39:21;;;;;;;6.75;4.65;;;;;;;15.32;87.64;101552.28;5133769;28;20035;-35
2021/08/10 00:41:46;;;;;;;7.93;4.77;;;;;;;15.33;87.68;101571.13;5133150;27;20027;-35
2021/08/10 00:44:11;;;;;;;7.25;4.80;;;;;;;15.33;87.53;101564.84;5133419;27;20312;-35
2021/08/10 00:46:37;;;;;;;6.17;4.37;;;;;;;15.34;87.63;101570.06;5133948;27;20027;-35
2021/08/10 00:49:02;;;;;;;6.43;4.22;;;;;;;15.28;87.81;101565.59;5133666;27;20272;-35
2021/08/10 00:51:28;;;;;;;11.23;4.73;;;;;;;15.34;87.80;101566.50;5136590;27;20049;-36
2021/08/10 00:53:53;;;;;;;5.82;4.35;;;;;;;15.37;87.48;101566.84;5137463;27;20268;-35
2021/08/10 00:56:19;;;;;;;5.30;4.20;;;;;;;15.35;87.81;101559.97;5137277;27;20035;-35
2021/08/10 00:58:44;;;;;;;7.55;4.30;;;;;;;15.43;87.72;101570.47;5137648;27;20095;-35
2021/08/10 01:01:09;;;;;;;7.25;4.30;;;;;;;15.44;87.31;101572.13;5137535;27;20105;-35
2021/08/10 01:03:35;;;;;;;6.60;4.15;;;;;;;15.44;87.44;101564.78;5136966;27;20433;-35
2021/08/10 01:06:05;;;;;;;10.18;4.55;;;;;;;15.33;87.18;101527.53;5137130;27;20027;-35
2021/08/10 01:08:58;;;;;;;6.28;3.63;;;;;;;15.51;86.92;101556.44;5137237;27;20359;-35
2021/08/10 01:11:38;;;;;;;8.38;4.00;;;;;;;15.48;86.82;101556.94;5136228;27;20039;-35
2021/08/10 01:14:20;;;;;;;5.03;3.67;;;;;;;15.49;86.79;101550.41;5136493;27;20019;-35
2021/08/10 01:16:53;;;;;;;6.85;4.38;;;;;;;15.46;87.11;101561.78;5137403;27;20043;-35
2021/08/10 01:19:43;;;;;;;10.05;4.45;;;;;;;15.49;86.80;101565.94;5137222;27;20027;-35
2021/08/10 01:22:11;;;;;;;6.50;4.20;;;;;;;15.40;87.05;101569.06;5136890;27;20405;-35
2021/08/10 01:25:03;;;;;;;8.07;3.80;;;;;;;15.39;86.87;101558.41;5137391;27;20019;-35
2021/08/10 01:28:00;;;;;;;7.72;4.00;;;;;;;15.45;87.27;101568.31;5137181;27;20042;-35
2021/08/10 01:30:38;;;;;;;6.25;4.38;;;;;;;15.50;87.05;101571.13;5136228;27;20065;-36
2021/08/10 01:33:04;;;;;;;7.38;4.28;;;;;;;15.39;86.63;101556.50;5136549;27;20091;-35
2021/08/10 01:35:31;;;;;;;8.40;4.50;;;;;;;15.35;87.21;101570.88;5136731;27;20023;-35
2021/08/10 01:37:59;;;;;;;7.88;4.68;;;;;;;15.38;87.57;101570.41;5136887;27;20101;-35
2021/08/10 01:40:26;;;;;;;6.95;4.38;;;;;;;15.25;87.65;101551.63;5136537;27;20015;-35
2021/08/10 01:42:54;;;;;;;6.90;4.40;;;;;;;15.36;87.31;101564.34;5136380;27;20030;-35
2021/08/10 01:45:19;;;;;;;8.45;4.20;;;;;;;15.37;86.99;101566.00;5136014;27;20023;-35
2021/08/10 01:47:47;;;;;;;6.38;4.57;;;;;;;15.31;87.65;101564.25;5135833;27;20015;-35
2021/08/10 01:50:13;;;;;;;8.35;4.30;;;;;;;15.32;87.54;101558.56;5135819;27;20019;-35
2021/08/10 01:52:41;;;;;;;7.68;4.38;;;;;;;15.11;88.03;101530.13;5135828;27;20486;-35
2021/08/10 01:55:08;;;;;;;6.85;4.20;;;;;;;15.28;87.61;101556.59;5136560;27;20101;-35
2021/08/10 01:57:34;;;;;;;5.10;4.15;;;;;;;15.08;87.92;101525.19;5136736;27;20023;-35
2021/08/10 02:00:00;;;;;;;;;;;;;;;15.33;87.14;101543.06;5135998;27;20436;-35
2021/08/10 02:02:25;;;;;;;6.77;3.77;;;;;;;15.26;87.38;101536.91;5135976;27;19945;-35
2021/08/10 02:04:52;;;;;;;8.33;3.43;;;;;;;15.29;87.40;101567.22;5135516;27;20038;-35
2021/08/10 02:07:19;;;;;;;7.03;4.07;;;;;;;15.30;87.26;101560.69;5135832;27;20252;-35
2021/08/10 02:09:46;;;;;;;6.43;4.00;;;;;;;15.34;86.91;101558.31;5135698;27;20023;-35
2021/08/10 02:12:12;;;;;;;8.77;4.15;;;;;;;15.34;87.20;101556.41;5135990;27;20033;-35
2021/08/10 02:14:38;;;;;;;5.97;3.70;;;;;;;15.40;87.03;101560.88;5135649;27;20079;-35
2021/08/10 02:17:05;;;;;;;;;;;;;;;15.48;85.94;101562.41;5136596;27;20023;-35
2021/08/10 02:19:33;;;;;;;7.40;3.70;;;;;;;15.36;86.58;101569.78;5135854;27;20339;-35
2021/08/10 02:22:04;;;;;;;6.07;3.30;;;;;;;15.30;87.23;101568.88;5135196;27;20083;-35
2021/08/10 02:24:40;;;;;;;8.10;3.92;;;;;;;15.28;87.14;101562.03;5135521;27;20022;-35
2021/08/10 02:27:09;;;;;;;6.00;3.70;;;;;;;15.34;87.20;101555.59;5135650;27;20397;-35
2021/08/10 02:29:39;;;;;;;6.90;3.47;;;;;;;15.25;87.47;101567.97;5135695;27;20744;-35
2021/08/10 02:32:07;;;;;;;7.43;3.40;;;;;;;15.25;87.23;101576.13;5135569;27;20106;-35
2021/08/10 02:34:33;;;;;;;7.15;3.45;;;;;;;15.18;87.02;101568.94;5135203;27;20097;-35
2021/08/10 02:37:00;;;;;;;8.15;3.67;;;;;;;15.15;87.90;101572.16;5135683;27;20026;-35
2021/08/10 02:39:27;;;;;;;7.72;3.67;;;;;;;15.18;87.57;101574.41;5135448;27;20023;-35
2021/08/10 02:41:56;;;;;;;8.93;3.60;;;;;;;15.18;87.59;101560.78;5135011;27;20019;-35
2021/08/10 02:44:24;;;;;;;6.97;3.60;;;;;;;15.18;87.20;101571.69;5134671;27;20034;-35
2021/08/10 02:46:49;;;;;;;6.00;3.70;;;;;;;15.19;87.47;101567.88;5135622;27;20217;-35
2021/08/10 02:49:14;;;;;;;7.63;3.60;;;;;;;15.21;87.40;101567.63;5133637;27;20537;-35
2021/08/10 02:51:40;;;;;;;5.75;3.30;;;;;;;15.15;87.67;101574.06;5133503;27;20520;-35
2021/08/10 02:54:05;;;;;;;5.55;3.38;;;;;;;15.12;87.49;101567.19;5134848;27;20023;-35
2021/08/10 02:56:35;;;;;;;6.82;3.58;;;;;;;15.11;87.36;101564.72;5133650;27;20058;-35
2021/08/10 02:59:13;;;;;;;6.15;3.38;;;;;;;15.06;87.53;101559.16;5134805;27;20378;-35
2021/08/10 03:01:47;;;;;;;7.45;3.47;;;;;;;14.90;87.82;101544.44;5134552;27;20053;-35
2021/08/10 03:04:13;;;;;;;8.25;3.38;;;;;;;15.05;87.67;101566.50;5135039;27;20095;-35
2021/08/10 03:06:39;;;;;;;6.60;3.80;;;;;;;15.05;87.90;101568.41;5135385;27;20019;-35
2021/08/10 03:09:04;;;;;;;6.65;3.78;;;;;;;14.96;88.17;101570.69;5134735;27;20026;-35
2021/08/10 03:11:34;;;;;;;6.22;3.03;;;;;;;14.93;88.33;101563.00;5134740;27;20435;-35
2021/08/10 03:14:01;;;;;;;4.78;3.60;;;;;;;14.89;88.65;101575.47;5134364;27;20019;-35
2021/08/10 03:16:30;;;;;;;7.18;2.92;;;;;;;14.90;88.53;101579.84;5134726;27;20114;-35
2021/08/10 03:18:59;;;;;;;7.28;3.08;;;;;;;14.80;88.25;101561.41;5135126;27;20076;-35
2021/08/10 03:21:25;;;;;;;4.90;3.13;;;;;;;14.83;88.21;101587.28;5134595;27;20104;-35
2021/08/10 03:23:53;;;;;;;4.78;3.15;;;;;;;14.84;89.04;101578.09;5134323;27;20039;-35
2021/08/10 03:26:21;;;;;;;6.65;3.42;;;;;;;14.77;88.89;101578.19;5134610;27;20400;-35
2021/08/10 03:28:48;;;;;;;5.50;3.45;;;;;;;14.77;88.87;101582.81;5134566;27;20039;-35
2021/08/10 03:31:15;;;;;;;5.85;3.40;;;;;;;14.66;88.80;101566.28;5134946;27;20389;-35
2021/08/10 03:33:41;;;;;;;4.60;2.80;;;;;;;14.75;89.05;101590.41;5134728;27;20050;-35
2021/08/10 03:36:07;;;;;;;6.65;3.00;;;;;;;14.60;88.88;101575.41;5134400;27;20019;-35
2021/08/10 03:38:34;;;;;;;6.80;3.35;;;;;;;14.70;88.86;101584.88;5134671;27;20568;-35
2021/08/10 03:41:00;;;;;;;8.10;3.25;;;;;;;14.64;89.29;101583.91;5134500;27;20060;-35
2021/08/10 03:43:28;;;;;;;6.22;3.30;;;;;;;14.62;89.20;101578.72;5134069;27;20023;-35
2021/08/10 03:45:54;;;;;;;6.97;3.22;;;;;;;14.63;89.00;101577.63;5134088;27;20471;-35
2021/08/10 03:48:21;;;;;;;6.07;2.92;;;;;;;14.59;88.84;101575.63;5134005;27;20116;-35
2021/08/10 03:50:48;;;;;;;3.78;2.60;;;;;;;14.53;88.54;101561.09;5134062;27;20068;-35
2021/08/10 03:53:14;;;;;;;4.65;2.88;;;;;;;14.62;88.53;101575.16;5134431;27;20019;-35
2021/08/10 03:55:40;;;;;;;6.15;2.90;;;;;;;14.49;88.65;101559.91;5134402;27;20027;-35
2021/08/10 03:58:06;;;;;;;;;;;;;;;14.67;87.70;101573.38;5134242;27;20027;-35
2021/08/10 04:00:37;;;;;;;4.32;2.60;;;;;;;14.53;88.68;101561.09;5133795;27;19911;-35
2021/08/10 04:03:06;;;;;;;5.43;2.97;;;;;;;14.50;88.44;101567.03;5133624;27;20058;-35
2021/08/10 04:05:32;;;;;;;5.30;3.00;;;;;;;14.54;88.28;101565.50;5134627;27;20018;-35
2021/08/10 04:08:00;;;;;;;5.85;3.20;;;;;;;14.51;88.46;101570.59;5133551;27;20090;-35
2021/08/10 04:10:26;;;;;;;7.18;2.80;;;;;;;14.52;88.57;101564.06;5134726;27;20023;-35
2021/08/10 04:12:52;;;;;;;;;;;;;;;14.58;87.46;101565.81;5134276;27;20045;-35
2021/08/10 04:15:18;;;;;;;4.55;2.85;;;;;;;14.45;88.45;101571.50;5133792;27;20002;-35
2021/08/10 04:17:43;;;;;;;5.50;3.45;;;;;;;14.39;88.56;101571.38;5133716;27;20019;-35
2021/08/10 04:20:09;;;;;;;5.20;3.00;;;;;;;14.42;88.36;101572.81;5133678;28;20019;-35
2021/08/10 04:22:34;;;;;;;6.47;3.03;;;;;;;14.37;88.84;101578.13;5133830;27;20016;-35
2021/08/10 04:25:00;;;;;;;5.35;3.45;;;;;;;14.42;88.69;101575.53;5134706;27;20018;-35
2021/08/10 04:27:25;;;;;;;6.57;3.17;;;;;;;14.36;88.37;101562.88;5138314;27;20023;-35
2021/08/10 04:29:50;;;;;;;4.60;2.80;;;;;;;14.38;88.75;101571.63;5138085;27;20255;-35
2021/08/10 04:32:16;;;;;;;5.63;3.17;;;;;;;14.30;88.87;101575.56;5138178;27;20115;-35
2021/08/10 04:34:41;;;;;;;5.03;2.90;;;;;;;14.33;88.35;101575.06;5137286;27;20114;-35
2021/08/10 04:37:07;;;;;;;6.32;3.13;;;;;;;14.34;88.85;101584.88;5138164;27;20019;-35
2021/08/10 04:39:33;;;;;;;5.32;3.03;;;;;;;14.34;88.52;101581.31;5137503;27;20104;-35
2021/08/10 04:41:58;;;;;;;5.75;3.08;;;;;;;14.16;88.77;101549.66;5137508;27;20171;-35
2021/08/10 04:44:24;;;;;;;4.05;3.00;;;;;;;14.37;88.83;101581.69;5137721;27;20092;-35
2021/08/10 04:46:50;;;;;;;5.05;3.40;;;;;;;14.45;88.57;101590.56;5137393;27;20114;-35
2021/08/10 04:49:16;;;;;;;4.50;3.40;;;;;;;14.40;89.18;101574.94;5137395;27;20030;-35
2021/08/10 04:51:41;;;;;;;;;;;;;;;14.52;88.08;101578.50;5138030;27;20030;-35
2021/08/10 04:54:06;;;;;;;4.60;3.20;;;;;;;14.32;88.93;101548.09;5137355;27;20322;-35
2021/08/10 04:56:32;;;;;;;4.75;3.15;;;;;;;14.52;88.57;101573.06;5137791;27;20057;-35
2021/08/10 04:58:57;;;;;;;7.25;4.03;;;;;;;14.42;88.56;101554.59;5137170;27;20035;-35
2021/08/10 05:01:22;;;;;;;4.30;3.20;;;;;;;14.65;88.08;101572.81;5137556;27;20042;-35
2021/08/10 05:03:48;;;;;;;7.72;3.75;;;;;;;14.67;87.71;101573.38;5136803;27;20023;-35
2021/08/10 05:06:13;;;;;;;7.87;3.83;;;;;;;14.77;87.69;101588.28;5137134;27;20431;-35
2021/08/10 05:08:38;;;;;;;5.70;3.67;;;;;;;14.76;87.93;101589.34;5136665;27;20462;-36
2021/08/10 05:11:08;;;;;;;5.70;3.22;;;;;;;14.76;87.77;101586.63;5137279;27;20023;-35
2021/08/10 05:13:34;;;;;;;6.55;3.83;;;;;;;14.71;88.14;101595.50;5137504;27;20156;-35
2021/08/10 05:15:59;;;;;;;6.43;3.53;;;;;;;14.74;87.88;101602.34;5137215;27;20042;-35
2021/08/10 05:18:24;;;;;;;4.63;3.20;;;;;;;14.74;88.42;101591.47;5137141;27;20459;-35
2021/08/10 05:20:50;;;;;;;5.93;3.23;;;;;;;14.79;88.16;101602.50;5134925;27;20273;-35
2021/08/10 05:23:15;;;;;;;5.53;3.63;;;;;;;14.66;88.48;101588.06;5136456;27;20077;-35
2021/08/10 05:25:40;;;;;;;7.70;4.10;;;;;;;14.58;88.46;101579.44;5136929;27;20708;-35
2021/08/10 05:28:06;;;;;;;5.10;3.67;;;;;;;14.73;88.07;101611.59;5134993;27;20288;-35
2021/08/10 05:30:31;;;;;;;6.60;3.90;;;;;;;14.78;88.52;101628.03;5136794;27;20035;-35
2021/08/10 05:32:56;;;;;;;5.63;4.13;;;;;;;14.78;88.27;101622.59;5136473;27;20336;-35
2021/08/10 05:35:22;;;;;;;7.17;3.60;;;;;;;14.75;88.00;101612.19;5136324;27;20248;-35
2021/08/10 05:37:47;;;;;;;6.27;4.33;;;;;;;14.77;87.92;101615.50;5136130;27;20697;-35
2021/08/10 05:40:13;;;;;;;5.53;3.80;;;;;;;14.78;88.42;101622.59;5136680;27;20302;-35
2021/08/10 05:42:38;;;;;;;6.07;3.53;;;;;;;14.82;88.38;101629.22;5136573;27;20390;-35
2021/08/10 05:45:04;;;;;;;6.50;4.00;;;;;;;14.69;88.21;101594.94;5135230;27;20075;-35
2021/08/10 05:47:30;;;;;;;6.60;4.30;;;;;;;14.74;88.43;101610.53;5136214;27;20030;-35
2021/08/10 05:49:55;;;;;;;6.63;4.70;;;;;;;14.84;88.48;101622.47;5136227;27;20019;-35
2021/08/10 05:52:20;;;;;;;6.90;4.60;;;;;;;14.85;88.54;101617.84;5136515;27;20083;-35
2021/08/10 05:54:46;;;;;;;5.53;4.07;;;;;;;14.87;88.60;101623.88;5136842;27;20041;-35
2021/08/10 05:57:11;;;;;;;4.93;4.20;;;;;;;14.78;88.25;101607.06;5136137;27;20031;-35
2021/08/10 05:59:36;;;;;;;6.70;4.43;;;;;;;14.92;88.53;101610.34;5136038;27;20288;-35
2021/08/10 06:02:03;;;;;;;6.78;4.65;;;;;;;14.95;88.31;101623.50;5136044;27;20728;-35
2021/08/10 06:04:29;;;;;;;7.22;4.55;;;;;;;14.98;88.30;101624.91;5136061;27;20110;-35
2021/08/10 06:06:54;;;;;;;5.50;4.70;;;;;;;15.00;88.04;101630.97;5136128;27;20102;-35
2021/08/10 06:09:19;;;;;;;8.50;5.23;;;;;;;15.00;88.12;101631.78;5135538;27;20047;-35
2021/08/10 06:11:45;;;;;;;6.60;4.27;;;;;;;15.06;88.14;101616.38;5136259;27;20335;-35
2021/08/10 06:14:10;;;;;;;7.97;5.13;;;;;;;14.94;87.93;101602.78;5135740;27;20073;-35
2021/08/10 06:16:37;;;;;;;9.55;5.15;;;;;;;15.08;87.90;101616.94;5135811;27;20031;-35
2021/08/10 06:19:02;;;;;;;10.55;5.10;;;;;;;15.08;88.35;101628.69;5135752;27;20023;-35
2021/08/10 06:21:29;;;;;;;8.27;4.60;;;;;;;15.08;87.85;101625.97;5135826;27;20029;-35
2021/08/10 06:23:54;;;;;;;9.75;5.22;;;;;;;15.06;88.66;101622.63;5135499;27;20031;-35
2021/08/10 06:26:20;;;;;;;7.07;5.10;;;;;;;15.05;88.86;101617.44;5135522;27;20062;-35
2021/08/10 06:28:46;;;;;;;6.13;4.38;;;;;;;14.99;88.56;101602.91;5135631;27;20318;-35
2021/08/10 06:31:11;;;;;;;6.57;5.00;;;;;;;15.05;89.02;101631.06;5135394;27;20447;-35
2021/08/10 06:33:37;;;;;;;6.25;5.05;;;;;;;15.06;89.21;101624.53;5135585;27;20019;-35
2021/08/10 06:36:03;;;;;;;8.73;5.15;;;;;;;15.02;89.27;101607.84;5135186;27;20401;-35
2021/08/10 06:38:29;;;;;;;8.48;4.60;;;;;;;15.02;89.73;101604.28;5135376;27;20015;-35
2021/08/10 06:40:54;;;;;;;7.00;4.70;;;;;;;15.10;89.47;101610.19;5135123;27;20541;-38
2021/08/10 06:43:20;;;;;;;9.13;4.93;;;;;;;15.12;89.57;101618.09;5135076;27;20031;-36
2021/08/10 06:45:45;;;;;;;6.50;5.00;;;;;;;15.24;89.24;101635.25;5134829;27;20047;-35
2021/08/10 06:48:10;;;;;;;8.70;4.77;;;;;;;15.25;88.65;101623.28;5134203;27;20022;-35
2021/08/10 06:50:36;;;;;;;8.10;5.05;;;;;;;15.22;88.87;101615.59;5135218;27;20051;-36
2021/08/10 06:53:01;;;;;;;9.50;4.82;;;;;;;15.29;88.98;101626.34;5134917;27;20027;-35
2021/08/10 06:55:27;;;;;;;7.88;4.60;;;;;;;15.33;88.28;101635.69;5134718;27;20027;-35
2021/08/10 06:57:52;;;;;;;10.35;5.43;;;;;;;15.24;89.36;101613.47;5134459;27;20015;-35
2021/08/10 07:00:18;;;;;;;7.32;4.13;;;;;;;15.41;89.55;101638.00;5135111;27;20047;-35
2021/08/10 07:02:43;;;;;;;8.38;4.30;;;;;;;15.44;89.33;101624.75;5134678;27;20110;-35
2021/08/10 07:05:09;;;;;;;8.13;4.43;;;;;;;15.46;88.76;101625.31;5134414;27;20030;-35
2021/08/10 07:07:34;;;;;;;8.23;5.15;;;;;;;15.46;89.08;101616.31;5135470;27;20022;-35
2021/08/10 07:10:00;;;;;;;6.80;3.97;;;;;;;15.49;89.17;101621.28;5134791;27;20019;-35
2021/08/10 07:12:25;;;;;;;;;;;;;;;15.66;88.22;101630.34;5135684;27;20338;-35
2021/08/10 07:14:50;;;;;;;9.50;4.13;;;;;;;15.73;89.70;101629.38;5134624;27;19907;-35
2021/08/10 07:17:16;;;;;;;6.03;4.60;;;;;;;15.67;89.78;101626.56;5135375;27;20266;-35
2021/08/10 07:19:41;;;;;;;10.32;5.53;;;;;;;15.80;88.87;101635.47;5134531;27;20272;-35
2021/08/10 07:22:06;;;;;;;10.10;4.70;;;;;;;15.70;88.26;101614.31;5135014;27;20019;-35
2021/08/10 07:24:32;;;;;;;8.75;4.50;;;;;;;15.82;88.38;101634.16;5134500;27;20264;-35
2021/08/10 07:26:57;;;;;;;7.72;4.40;;;;;;;15.74;88.04;101634.56;5132822;27;20118;-35
2021/08/10 07:29:22;;;;;;;7.97;4.73;;;;;;;15.75;87.42;101632.66;5135026;27;20045;-35
2021/08/10 07:31:48;;;;;;;9.43;4.80;;;;;;;15.91;87.28;101645.50;5134982;27;20261;-35
2021/08/10 07:34:13;;;;;;;7.53;3.97;;;;;;;16.04;87.72;101636.97;5134047;27;20296;-35
2021/08/10 07:36:39;;;;;;;6.43;4.57;;;;;;;16.27;87.38;101640.63;5134406;27;20022;-35
2021/08/10 07:39:05;;;;;;;5.55;3.95;;;;;;;16.41;85.92;101641.91;5134449;27;20024;-35
2021/08/10 07:41:31;;;;;;;6.88;3.92;;;;;;;16.59;85.47;101649.00;5134743;27;20023;-35
2021/08/10 07:43:56;;;;;;;7.80;4.03;;;;;;;16.68;85.33;101648.31;5134149;27;20113;-35
2021/08/10 07:46:22;;;;;;;8.07;4.13;;;;;;;16.78;85.62;101641.34;5134823;27;20490;-35
2021/08/10 07:48:47;;;;;;;8.93;4.88;;;;;;;16.73;84.38;101620.25;5134227;27;20356;-35
2021/08/10 07:51:12;;;;;;;11.30;5.18;;;;;;;16.97;83.45;101642.69;5134799;27;20439;-35
2021/08/10 07:53:38;;;;;;;;;;;;;;;17.10;84.05;101649.69;5134548;27;20019;-35
2021/08/10 07:56:04;;;;;;;9.70;4.30;;;;;;;16.91;83.04;101643.72;5134123;27;20172;-35
2021/08/10 07:58:30;;;;;;;6.97;4.45;;;;;;;16.91;83.82;101641.81;5133983;27;20034;-35
2021/08/10 08:00:55;;;;;;;7.07;3.95;;;;;;;16.94;83.34;101641.31;5132492;28;20023;-35
2021/08/10 08:03:20;;;;;;;;;;;;;;;17.19;83.52;101654.47;5134550;27;20038;-35
2021/08/10 08:05:46;;;;;;;8.68;3.95;;;;;;;17.22;82.72;101640.25;5133959;28;20323;-35
2021/08/10 08:08:11;;;;;;;;;;;;;;;17.42;83.20;101647.03;5134360;27;20027;-35
2021/08/10 08:10:36;;;;;;;7.63;4.25;;;;;;;17.38;81.19;101635.00;5134270;28;19903;-35
2021/08/10 08:13:01;;;;;;;;;;;;;;;17.67;82.42;101639.13;5134349;28;20055;-35
2021/08/10 08:15:27;;;;;;;7.67;3.33;;;;;;;17.69;79.81;101636.94;5133883;28;19918;-35
2021/08/10 08:17:52;;;;;;;6.18;2.92;;;;;;;17.70;80.13;101641.31;5133864;28;20292;-35
2021/08/10 08:20:18;;;;;;;;;;;;;;;17.85;79.77;101637.09;5134590;27;20058;-35
2021/08/10 08:22:44;;;;;;;7.30;3.47;;;;;;;17.72;79.40;101633.69;5133826;27;19962;-35
2021/08/10 08:25:10;;;;;;;7.85;4.47;;;;;;;17.69;80.98;101631.47;5134322;27;20359;-35
2021/08/10 08:27:36;;;;;;;10.02;4.80;;;;;;;17.70;78.24;101638.56;5134115;27;20024;-35
2021/08/10 08:30:04;;;;;;;8.32;4.40;;;;;;;17.71;78.13;101634.78;5133686;27;20023;-35
2021/08/10 08:32:29;;;;;;;7.00;4.07;;;;;;;17.82;79.14;101629.44;5134018;27;20019;-35
2021/08/10 08:34:55;;;;;;;6.50;4.40;;;;;;;17.86;78.96;101619.59;5133425;27;20019;-35
2021/08/10 08:37:20;;;;;;;;;;;;;;;18.12;79.55;101628.84;5134458;27;20050;-35
2021/08/10 08:39:45;;;;;;;6.43;4.43;;;;;;;17.99;77.32;101632.84;5133307;28;19907;-35
2021/08/10 08:42:14;;;;;;;6.40;4.30;;;;;;;17.98;78.28;101628.47;5134113;28;20282;-35
2021/08/10 08:44:39;;;;;;;8.88;4.60;;;;;;;17.85;76.96;101612.47;5133588;27;20031;-35
2021/08/10 08:47:06;;;;;;;7.35;4.68;;;;;;;17.88;77.59;101629.19;5133683;27;20367;-35
2021/08/10 08:49:33;;;;;;;7.88;4.82;;;;;;;17.90;78.54;101621.53;5133570;27;20024;-35
2021/08/10 08:52:00;;;;;;;11.07;4.95;;;;;;;17.90;78.04;101621.53;5133795;27;20035;-35
2021/08/10 08:54:26;;;;;;;9.32;4.97;;;;;;;17.86;77.26;101622.31;5133602;27;20030;-35
2021/08/10 08:56:52;;;;;;;7.20;4.43;;;;;;;17.88;76.75;101622.91;5134058;27;20015;-35
2021/08/10 08:59:18;;;;;;;;;;;;;;;18.04;77.71;101624.66;5133950;27;20023;-35
2021/08/10 09:01:43;;;;;;;7.20;3.30;;;;;;;18.01;76.33;101617.81;5133908;27;19914;-36
2021/08/10 09:04:09;;;;;;;7.80;3.95;;;;;;;18.24;77.52;101618.53;5133448;27;20443;-35
2021/08/10 09:06:35;;;;;;;;;;;;;;;18.47;76.56;101628.25;5134850;28;20031;-35
2021/08/10 09:09:19;;;;;;;4.95;3.00;;;;;;;18.56;76.49;101612.97;5133423;27;19960;-35
2021/08/10 09:11:53;;;;;;;4.45;3.20;;;;;;;18.79;74.85;101633.69;5135778;27;20027;-35
2021/08/10 09:14:20;;;;;;;8.02;2.97;;;;;;;18.83;74.33;101629.28;5137099;27;20481;-35
2021/08/10 09:17:10;;;;;;;6.60;3.28;;;;;;;18.65;74.66;101605.09;5137289;27;20011;-35
2021/08/10 09:19:48;;;;;;;4.90;3.15;;;;;;;18.62;74.11;101622.88;5137195;27;20027;-35
2021/08/10 09:22:14;;;;;;;4.68;2.92;;;;;;;18.60;74.19;101624.25;5136801;27;20110;-35
2021/08/10 09:24:42;;;;;;;4.43;3.33;;;;;;;18.63;74.02;101629.16;5136882;27;20015;-35
2021/08/10 09:27:34;;;;;;;3.47;2.67;;;;;;;18.77;75.30;101636.66;5137567;27;20027;-35
2021/08/10 09:30:00;;;;;;;6.38;3.03;;;;;;;18.69;74.39;101628.97;5136320;27;20099;-35
2021/08/10 09:32:26;;;;;;;5.53;2.75;;;;;;;18.76;74.34;101634.19;5136604;27;20034;-36
2021/08/10 09:35:05;;;;;;;;;;;;;;;18.92;74.75;101637.81;5137067;27;20450;-35
2021/08/10 09:37:30;;;;;;;7.85;3.28;;;;;;;18.89;73.42;101635.63;5136668;27;19903;-35
2021/08/10 09:39:56;;;;;;;;;;;;;;;19.04;74.36;101630.22;5136962;27;20034;-35
2021/08/10 09:42:23;;;;;;;4.53;2.90;;;;;;;19.08;73.84;101634.06;5136457;27;19941;-35
2021/08/10 09:44:57;;;;;;;4.85;2.83;;;;;;;19.21;73.24;101636.28;5136102;27;20736;-35
2021/08/10 09:47:36;;;;;;;5.28;2.78;;;;;;;19.17;73.14;101629.69;5136619;27;20019;-35
2021/08/10 09:50:14;;;;;;;5.53;2.75;;;;;;;19.17;72.72;101635.19;5136565;27;20370;-36
2021/08/10 09:52:39;;;;;;;4.07;2.60;;;;;;;19.00;72.01;101621.69;5136479;27;20470;-35
2021/08/10 09:55:12;;;;;;;;;;;;;;;19.42;73.74;101636.34;5136724;27;20019;-35
2021/08/10 09:57:40;;;;;;;4.35;2.45;;;;;;;19.61;71.50;101629.28;5136843;27;19955;-35
2021/08/10 10:00:06;;;;;;;5.85;2.50;;;;;;;19.68;70.96;101629.84;5135793;27;20019;-35
2021/08/10 10:02:32;;;;;;;;;;;;;;;19.87;72.26;101629.31;5136393;27;20370;-35
2021/08/10 10:04:58;;;;;;;5.38;2.72;;;;;;;19.73;70.72;101627.09;5135818;27;19907;-35
2021/08/10 10:07:24;;;;;;;;;;;;;;;19.91;70.51;101623.00;5136412;27;20023;-35
2021/08/10 10:09:50;;;;;;;5.35;2.72;;;;;;;19.78;69.77;101629.84;5135931;27;19915;-35
2021/08/10 10:12:19;;;;;;;5.45;2.70;;;;;;;19.71;71.25;101636.69;5136555;27;20315;-35
2021/08/10 10:14:46;;;;;;;8.15;3.00;;;;;;;19.74;70.02;101627.94;5135515;27;20462;-35
2021/08/10 10:17:13;;;;;;;6.88;2.80;;;;;;;19.91;70.00;101633.97;5135489;27;20397;-35
2021/08/10 10:19:42;;;;;;;4.75;2.80;;;;;;;19.95;67.88;101631.50;5135700;27;20019;-35
2021/08/10 10:22:16;;;;;;;4.75;2.90;;;;;;;19.97;68.37;101632.88;5134374;27;20023;-35
2021/08/10 10:24:54;;;;;;;6.20;3.40;;;;;;;20.07;68.83;101621.06;5135589;27;20019;-36
2021/08/10 10:27:20;;;;;;;6.90;3.25;;;;;;;20.19;67.25;101632.56;5135805;27;20019;-35
2021/08/10 10:29:50;;;;;;;4.10;2.72;;;;;;;20.28;67.58;101614.44;5136034;27;20031;-35
2021/08/10 10:32:23;;;;;;;4.78;2.83;;;;;;;20.41;66.60;101631.47;5136057;27;20154;-35
2021/08/10 10:34:48;;;;;;;5.10;2.38;;;;;;;20.72;66.72;101623.97;5135963;27;20415;-36
2021/08/10 10:37:22;;;;;;;;;;;;;;;21.00;65.78;101626.06;5136629;27;20027;-35
2021/08/10 10:39:50;;;;;;;4.28;2.78;;;;;;;20.90;63.99;101623.38;5135632;27;19915;-36
2021/08/10 10:42:15;;;;;;;4.43;2.80;;;;;;;21.10;65.29;101622.44;5135882;27;20033;-36
2021/08/10 10:44:45;;;;;;;;;;;;;;;21.34;64.21;101612.44;5136237;27;20031;-36
2021/08/10 10:47:37;;;;;;;4.72;3.22;;;;;;;21.37;64.77;101623.97;5135236;27;19910;-35
2021/08/10 10:50:05;;;;;;;6.28;2.58;;;;;;;21.17;62.64;101606.44;5135684;27;20336;-35
2021/08/10 10:52:32;;;;;;;4.65;2.50;;;;;;;21.25;62.45;101624.28;5135266;27;20035;-36
2021/08/10 10:55:00;;;;;;;4.53;2.33;;;;;;;21.22;64.31;101602.84;5135425;27;20015;-35
2021/08/10 11:00:02;;;;;;;3.85;2.50;;;;;;;21.74;63.55;101620.69;5135056;27;20497;-35
2021/08/10 11:02:28;;;;;;;4.70;2.03;;;;;;;21.92;61.93;101608.16;5135416;27;20086;-36
2021/08/10 11:05:05;;;;;;;4.25;2.45;;;;;;;21.92;61.98;101610.91;5134911;27;20084;-36
2021/08/10 11:07:37;;;;;;;6.38;2.30;;;;;;;21.91;63.47;101612.00;5134894;27;20061;-36
2021/08/10 11:10:11;;;;;;;8.77;2.60;;;;;;;21.96;62.64;101607.31;5135004;27;20070;-36
2021/08/10 11:12:47;;;;;;;6.22;2.40;;;;;;;21.95;61.27;101593.81;5135605;27;20019;-35
2021/08/10 11:15:20;;;;;;;4.53;2.08;;;;;;;21.90;61.13;101613.94;5134900;27;20339;-36
2021/08/10 11:18:22;;;;;;;4.38;2.35;;;;;;;22.03;60.18;101606.94;5134893;27;20030;-36
2021/08/10 11:20:51;;;;;;;3.95;2.20;;;;;;;21.81;58.51;101608.25;5051015;28;20053;-36
2021/08/10 11:23:26;;;;;;;6.25;2.72;;;;;;;21.53;60.50;101609.03;5051453;28;20111;-36
2021/08/10 11:26:13;;;;;;;3.65;2.20;;;;;;;21.30;60.99;101611.34;5051039;28;20032;-35
2021/08/10 11:28:51;;;;;;;3.85;2.40;;;;;;;21.06;62.69;101621.34;5051269;28;20041;-36
2021/08/10 11:31:38;;;;;;;5.28;2.60;;;;;;;21.05;63.32;101606.78;5051611;28;20036;-36
2021/08/10 11:34:24;;;;;;;4.00;2.28;;;;;;;21.38;64.04;101620.13;5050579;28;20070;-36